PST,Max TemperatureF,Mean TemperatureF,Min TemperatureF,Max Dew PointF,MeanDew PointF,Min DewpointF,Max Humidity, Mean Humidity, Min Humidity, Max Sea Level PressureIn, Mean Sea Level PressureIn, Min Sea Level PressureIn, Max VisibilityMiles, Mean VisibilityMiles, Min VisibilityMiles, Max Wind SpeedMPH, Mean Wind SpeedMPH, Max Gust SpeedMPH,PrecipitationIn, CloudCover, Events, WindDirDegrees
2012-12-1,48,46,44,46,44,43,100,92,86,29.60,29.48,29.25,10,10,10,18,9,30,0.71,8,Rain,153
2012-12-2,50,46,43,46,44,41,100,93,86,29.78,29.48,29.17,10,10,10,18,8,28,0.85,7,Rain,206
2012-12-3,48,46,44,48,45,42,100,94,83,29.98,29.87,29.63,10,10,9,24,8,32,0.75,8,Rain,173
2012-12-4,51,48,42,49,44,39,100,92,80,29.84,29.66,29.52,10,10,8,17,8,28,1.15,7,Rain,237
2012-12-5,46,39,32,39,38,32,100,94,71,30.20,30.13,29.88,10,10,9,15,6,29,0.11,6,Rain,238
2012-12-6,44,42,39,43,40,39,100,94,87,30.18,30.10,30.05,10,10,10,18,5,23,0.37,7,Rain,226
2012-12-7,45,41,37,43,39,34,100,89,71,30.16,30.05,29.98,10,10,9,21,10,32,0.50,5,Rain,233
2012-12-8,42,38,35,37,36,34,100,93,79,30.34,30.24,30.15,10,10,10,15,7,,0.00,4,,257
2012-12-9,43,40,37,43,39,36,100,96,87,30.37,30.31,30.25,10,9,7,6,1,,0.19,8,Rain,359
2012-12-10,45,43,41,43,41,39,100,97,87,30.42,30.33,30.10,10,10,4,10,2,,0.00,8,,296
2012-12-11,44,42,39,43,41,39,100,95,87,30.06,29.69,29.52,10,10,10,12,6,,0.13,7,Rain,227
2012-12-12,44,40,37,41,39,37,100,91,79,30.02,29.84,29.62,10,10,10,14,4,,0.00,8,,261
2012-12-13,44,40,37,40,39,37,100,94,76,30.04,29.92,29.79,10,10,6,4,0,,0.16,8,Rain,127
2012-12-14,43,38,32,39,37,32,100,94,81,29.94,29.87,29.74,10,8,1,6,2,,0.05,7,Rain,166
2012-12-15,37,35,33,36,35,32,100,97,89,29.88,29.67,29.53,10,9,1,12,3,18,0.48,7,Rain-Snow,191
2012-12-16,37,35,33,37,34,32,100,97,93,29.74,29.44,28.94,10,10,6,13,3,18,1.61,8,Rain-Snow,56
2012-12-17,42,36,30,40,35,30,100,92,81,29.88,29.47,28.88,10,10,9,32,13,43,0.27,6,Rain-Snow,236
2012-12-18,34,32,30,34,32,30,100,98,92,29.98,29.92,29.85,10,9,3,7,2,,0.23,7,Snow,173
2012-12-19,37,34,32,35,33,32,100,97,86,29.93,29.69,29.52,10,9,5,14,5,26,1.91,8,Rain-Snow,17
2012-12-20,39,34,28,37,34,28,100,98,93,29.81,29.68,29.50,10,8,2,6,2,,0.54,7,Rain,338
2012-12-21,41,34,26,38,32,26,100,97,86,29.79,29.72,29.63,10,8,1,7,2,,0.05,6,Rain,355
2012-12-22,44,40,35,39,37,35,100,93,81,29.72,29.58,29.49,10,10,10,10,4,20,0.20,8,Rain,133
2012-12-23,41,37,33,39,37,34,100,93,82,29.81,29.70,29.62,10,10,6,9,5,,0.27,8,Rain,158
2012-12-24,41,36,32,40,36,32,100,98,93,30.15,30.07,29.84,10,8,1,10,4,,0.06,7,Rain,306
2012-12-25,36,34,32,36,34,32,100,97,93,30.01,29.73,29.64,10,8,2,15,4,18,1.01,8,Rain-Snow,19
2012-12-26,42,38,33,40,37,33,100,97,87,29.90,29.76,29.68,10,8,2,17,3,,0.18,8,Rain,194
2012-12-27,46,40,35,41,38,34,100,94,79,30.14,30.08,29.92,10,10,3,15,7,,0.02,7,Rain,241
2012-12-28,44,40,35,40,38,36,100,96,82,30.15,30.12,30.09,10,9,2,6,2,,0.06,8,Rain,7
2012-12-29,39,36,32,39,36,32,100,99,93,30.23,30.16,30.11,10,5,1,5,0,,0.06,8,Rain,135
2012-12-30,39,34,28,38,35,28,100,97,93,30.31,30.26,30.21,10,8,2,5,1,,0.00,7,,10
2012-12-31,35,32,28,36,32,28,100,99,93,30.44,30.32,30.22,10,8,2,5,1,,0.17,7,Snow,354